createdAt,value
2018-09-30T00:00:46.238Z,8.07
2018-09-30T00:03:13.699Z,8.73
2018-09-30T00:05:41.182Z,7.93
2018-09-30T00:08:08.660Z,8.27
2018-09-30T00:10:36.077Z,9.88
2018-09-30T00:13:03.569Z,8.43
2018-09-30T00:15:31.009Z,8.10
2018-09-30T00:17:58.430Z,7.97
2018-09-30T00:20:25.910Z,8.07
2018-09-30T00:22:53.367Z,8.18
2018-09-30T00:28:18.896Z,13.20
2018-09-30T00:30:46.369Z,9.95
2018-09-30T00:33:13.860Z,9.65
2018-09-30T00:35:42.110Z,8.55
2018-09-30T00:38:09.581Z,8.25
2018-09-30T00:40:37.019Z,8.95
2018-09-30T00:43:04.664Z,9.50
2018-09-30T00:45:32.126Z,9.88
2018-09-30T00:47:59.567Z,8.63
2018-09-30T00:50:27.104Z,11.27
2018-09-30T00:52:54.562Z,9.20
2018-09-30T00:55:22.017Z,10.55
2018-09-30T00:57:49.475Z,10.10
2018-09-30T01:00:16.932Z,8.38
2018-09-30T01:02:44.402Z,9.50
2018-09-30T01:05:11.892Z,9.85
2018-09-30T01:07:39.339Z,7.78
2018-09-30T01:10:06.797Z,10.50
2018-09-30T01:12:34.234Z,9.60
2018-09-30T01:15:01.711Z,9.48
2018-09-30T01:17:29.126Z,9.55
2018-09-30T01:19:56.549Z,9.85
2018-09-30T01:22:24.088Z,10.32
2018-09-30T01:24:51.490Z,8.50
2018-09-30T01:27:18.921Z,9.13
2018-09-30T01:29:46.347Z,10.75
2018-09-30T01:32:13.841Z,8.80
2018-09-30T01:34:41.304Z,8.05
2018-09-30T01:37:08.709Z,8.60
2018-09-30T01:39:36.157Z,10.23
2018-09-30T01:42:03.668Z,7.57
2018-09-30T01:44:31.104Z,9.25
2018-09-30T01:46:59.055Z,9.70
2018-09-30T01:49:26.482Z,11.63
2018-09-30T01:51:53.930Z,9.77
2018-09-30T01:54:21.735Z,9.73
2018-09-30T01:56:49.171Z,8.25
2018-09-30T01:59:16.594Z,8.98
2018-09-30T02:01:44.046Z,10.52
2018-09-30T02:04:11.655Z,9.70
2018-09-30T02:06:39.142Z,9.25
2018-09-30T02:09:06.581Z,8.77
2018-09-30T02:11:34.180Z,7.93
2018-09-30T02:14:01.611Z,8.25
2018-09-30T02:16:29.077Z,10.80
2018-09-30T02:18:56.610Z,10.27
2018-09-30T02:21:24.104Z,9.13
2018-09-30T02:23:52.282Z,10.35
2018-09-30T02:26:19.783Z,9.00
2018-09-30T02:28:47.200Z,10.07
2018-09-30T02:31:14.637Z,8.82
2018-09-30T02:33:42.132Z,8.32
2018-09-30T02:36:09.606Z,9.45
2018-09-30T02:38:37.082Z,9.13
2018-09-30T02:41:04.514Z,8.32
2018-09-30T02:43:31.924Z,7.50
2018-09-30T02:45:59.355Z,6.55
2018-09-30T02:48:26.844Z,8.15
2018-09-30T02:50:54.280Z,8.65
2018-09-30T02:53:21.694Z,7.80
2018-09-30T02:55:49.211Z,6.90
2018-09-30T02:58:16.678Z,7.93
2018-09-30T03:00:44.195Z,9.75
2018-09-30T03:03:11.671Z,8.30
2018-09-30T03:05:39.183Z,7.15
2018-09-30T03:11:00.614Z,15.57
2018-09-30T03:13:28.059Z,8.73
2018-09-30T03:15:55.577Z,8.20
2018-09-30T03:18:23.014Z,8.70
2018-09-30T03:20:50.458Z,9.65
2018-09-30T03:23:17.915Z,10.80
2018-09-30T03:25:45.392Z,10.82
2018-09-30T03:28:13.012Z,10.00
2018-09-30T03:30:40.636Z,14.05
2018-09-30T03:33:08.059Z,10.00
2018-09-30T03:35:35.549Z,12.48
2018-09-30T03:38:03.044Z,10.30
2018-09-30T03:40:30.493Z,10.88
2018-09-30T03:42:57.901Z,10.00
2018-09-30T03:45:25.367Z,10.55
2018-09-30T03:47:52.838Z,11.07
2018-09-30T03:50:20.464Z,10.15
2018-09-30T03:52:47.899Z,8.75
2018-09-30T03:55:15.345Z,11.85
2018-09-30T03:57:42.816Z,8.98
2018-09-30T04:00:10.288Z,10.13
2018-09-30T04:02:37.836Z,9.65
2018-09-30T04:05:05.231Z,8.98
2018-09-30T04:07:32.654Z,9.60
2018-09-30T04:10:00.220Z,12.40
2018-09-30T04:12:27.629Z,11.40
2018-09-30T04:14:55.035Z,9.02
2018-09-30T04:17:22.597Z,9.77
2018-09-30T04:19:50.008Z,8.48
2018-09-30T04:22:17.450Z,9.95
2018-09-30T04:24:44.934Z,9.02
2018-09-30T04:27:12.448Z,12.05
2018-09-30T04:29:39.872Z,10.50
2018-09-30T04:32:07.355Z,11.45
2018-09-30T04:34:34.816Z,11.77
2018-09-30T04:37:02.283Z,9.88
2018-09-30T04:39:29.929Z,8.50
2018-09-30T04:41:57.410Z,7.95
2018-09-30T04:44:24.812Z,9.63
2018-09-30T04:46:52.265Z,10.30
2018-09-30T04:49:19.758Z,9.05
2018-09-30T04:51:47.195Z,8.25
2018-09-30T04:54:14.836Z,7.93
2018-09-30T04:56:42.263Z,9.18
2018-09-30T04:59:09.681Z,10.02
2018-09-30T05:01:37.257Z,7.55
2018-09-30T05:04:04.817Z,10.75
2018-09-30T05:06:32.322Z,9.23
2018-09-30T05:08:59.816Z,8.02
2018-09-30T05:11:27.315Z,8.43
2018-09-30T05:13:54.701Z,8.73
2018-09-30T05:16:22.177Z,7.85
2018-09-30T05:18:49.637Z,8.90
2018-09-30T05:21:17.088Z,8.40
2018-09-30T05:23:44.577Z,8.20
2018-09-30T05:26:12.084Z,8.00
2018-09-30T05:28:39.641Z,8.10
2018-09-30T05:31:07.130Z,8.38
2018-09-30T05:33:34.562Z,8.13
2018-09-30T05:36:02.038Z,7.85
2018-09-30T05:38:29.589Z,9.65
2018-09-30T05:40:57.128Z,10.70
2018-09-30T05:43:24.617Z,10.98
2018-09-30T05:45:52.117Z,8.55
2018-09-30T05:48:19.585Z,8.82
2018-09-30T05:50:47.048Z,10.10
2018-09-30T05:53:14.502Z,8.43
2018-09-30T05:55:41.948Z,10.07
2018-09-30T05:58:09.469Z,9.55
2018-09-30T06:00:36.842Z,9.43
2018-09-30T06:03:04.312Z,10.07
2018-09-30T06:05:31.738Z,8.73
2018-09-30T06:07:59.157Z,9.27
2018-09-30T06:10:26.672Z,9.88
2018-09-30T06:12:54.103Z,9.23
2018-09-30T06:15:21.567Z,10.27
2018-09-30T06:17:49.109Z,9.15
2018-09-30T06:20:16.635Z,9.25
2018-09-30T06:22:44.113Z,8.13
2018-09-30T06:25:11.604Z,10.52
2018-09-30T06:27:39.059Z,9.75
2018-09-30T06:30:06.462Z,9.85
2018-09-30T06:32:33.909Z,13.02
2018-09-30T06:35:01.369Z,12.45
2018-09-30T06:37:28.971Z,11.35
2018-09-30T06:39:56.416Z,11.27
2018-09-30T06:42:23.846Z,9.00
2018-09-30T06:44:51.274Z,10.38
2018-09-30T06:47:18.796Z,11.68
2018-09-30T06:49:46.271Z,13.05
2018-09-30T06:52:13.742Z,11.85
2018-09-30T06:54:41.211Z,13.23
2018-09-30T06:57:08.669Z,14.48
2018-09-30T07:14:18.435Z,13.10
2018-09-30T08:13:17.549Z,17.80
2018-09-30T08:20:39.088Z,19.95
2018-09-30T08:23:07.062Z,19.27
2018-09-30T08:25:34.523Z,21.27
2018-09-30T08:28:01.977Z,24.55
2018-09-30T09:02:21.945Z,26.45
2018-09-30T09:12:10.365Z,24.77
2018-09-30T09:14:37.901Z,26.23
2018-09-30T09:17:05.697Z,26.50
2018-09-30T09:36:46.395Z,22.60
2018-09-30T09:41:41.736Z,18.40
2018-09-30T09:49:04.969Z,19.20
2018-09-30T09:51:32.440Z,20.25
2018-09-30T09:54:00.125Z,19.15
2018-09-30T09:56:27.665Z,17.77
2018-09-30T09:58:56.858Z,18.60
2018-09-30T10:01:24.322Z,16.83
2018-09-30T10:03:51.776Z,17.85
2018-09-30T10:06:19.436Z,19.83
2018-09-30T10:08:47.126Z,18.65
2018-09-30T10:11:15.021Z,19.45
2018-09-30T10:13:42.561Z,18.40
2018-09-30T10:16:11.059Z,19.77
2018-09-30T10:18:38.561Z,20.25
2018-09-30T10:21:06.045Z,21.55
2018-09-30T10:23:33.693Z,21.00
2018-09-30T10:26:01.870Z,21.58
2018-09-30T10:28:29.414Z,16.40
2018-09-30T10:30:57.957Z,17.48
2018-09-30T10:33:26.485Z,18.08
2018-09-30T10:35:54.213Z,21.10
2018-09-30T10:38:21.974Z,19.48
2018-09-30T10:40:49.533Z,16.15
2018-09-30T10:43:19.112Z,19.37
2018-09-30T10:45:46.612Z,20.80
2018-09-30T10:48:14.663Z,20.45
2018-09-30T10:50:42.110Z,18.58
2018-09-30T10:53:09.974Z,20.10
2018-09-30T10:55:38.703Z,19.85
2018-09-30T10:58:06.831Z,20.55
2018-09-30T11:00:36.974Z,20.02
2018-09-30T11:15:26.748Z,18.40
2018-09-30T11:17:54.966Z,19.90
2018-09-30T11:20:22.664Z,17.50
2018-09-30T11:22:51.496Z,17.73
2018-09-30T11:25:20.178Z,15.65
2018-09-30T11:27:48.174Z,16.50
2018-09-30T11:30:16.065Z,16.10
2018-09-30T11:32:43.751Z,16.27
2018-09-30T11:35:11.671Z,15.45
2018-09-30T11:37:41.525Z,15.30
2018-09-30T11:40:08.950Z,16.98
2018-09-30T11:42:36.713Z,15.77
2018-09-30T11:45:04.606Z,15.38
2018-09-30T11:47:32.171Z,15.55
2018-09-30T11:50:00.326Z,15.57
2018-09-30T11:52:28.177Z,14.02
2018-09-30T11:54:55.807Z,14.98
2018-09-30T11:57:24.421Z,14.07
2018-09-30T11:59:52.418Z,16.37
2018-09-30T12:02:20.776Z,14.45
2018-09-30T12:04:48.734Z,15.20
2018-09-30T12:07:18.044Z,13.93
2018-09-30T12:09:46.821Z,13.30
2018-09-30T12:12:16.135Z,13.70
2018-09-30T12:24:33.257Z,7.32
2018-09-30T12:27:00.851Z,7.80
2018-09-30T12:29:28.323Z,6.12
2018-09-30T12:31:57.767Z,7.37
2018-09-30T12:34:26.965Z,5.47
2018-09-30T12:36:54.677Z,5.80
2018-09-30T12:39:22.360Z,4.80
2018-09-30T12:41:49.855Z,6.12
2018-09-30T12:44:17.436Z,6.30
2018-09-30T12:46:44.979Z,5.00
2018-09-30T12:59:00.657Z,5.50
2018-09-30T13:01:28.099Z,5.32
2018-09-30T13:03:55.712Z,4.22
2018-09-30T13:06:23.143Z,3.70
2018-09-30T13:08:50.612Z,4.50
2018-09-30T13:11:18.074Z,4.65
2018-09-30T13:13:45.859Z,4.43
2018-09-30T13:35:50.088Z,3.83
2018-09-30T13:38:17.557Z,4.15
2018-09-30T13:40:45.165Z,4.07
2018-09-30T13:43:12.521Z,3.00
2018-09-30T13:45:39.916Z,3.30
2018-09-30T13:48:07.490Z,2.92
2018-09-30T13:50:34.934Z,3.10
2018-09-30T13:53:02.400Z,2.80
2018-09-30T13:55:30.741Z,3.20
2018-09-30T14:17:34.748Z,2.58
2018-09-30T14:20:02.227Z,1.85
2018-09-30T14:22:29.701Z,2.37
2018-09-30T14:24:57.188Z,1.98
2018-09-30T14:27:24.793Z,2.25
2018-09-30T14:29:52.062Z,2.65
2018-09-30T14:32:19.556Z,2.40
2018-09-30T14:34:47.083Z,2.17
2018-09-30T14:37:14.580Z,2.25
2018-09-30T14:39:42.620Z,2.85
2018-09-30T14:42:10.020Z,2.30
2018-09-30T14:44:37.467Z,2.03
2018-09-30T14:47:04.928Z,2.83
2018-09-30T14:49:32.432Z,3.22
2018-09-30T14:51:59.891Z,2.33
2018-09-30T14:54:27.419Z,3.30
2018-09-30T14:56:54.847Z,2.05
2018-09-30T14:59:22.288Z,1.85
2018-09-30T15:01:49.739Z,2.37
2018-09-30T15:04:17.298Z,1.73
2018-09-30T15:06:44.762Z,1.80
2018-09-30T15:09:12.204Z,3.05
2018-09-30T15:11:39.630Z,2.37
2018-09-30T15:14:07.188Z,2.95
2018-09-30T15:16:34.694Z,2.85
2018-09-30T15:19:02.146Z,2.58
2018-09-30T15:21:29.615Z,1.87
2018-09-30T15:23:57.484Z,1.80
2018-09-30T15:26:24.923Z,2.67
2018-09-30T15:28:52.408Z,1.90
2018-09-30T15:31:20.654Z,2.30
2018-09-30T15:33:48.218Z,2.70
2018-09-30T15:36:15.636Z,3.03
2018-09-30T15:38:43.125Z,2.10
2018-09-30T15:41:10.578Z,2.70
2018-09-30T15:43:38.105Z,3.42
2018-09-30T15:46:05.664Z,2.58
2018-09-30T15:48:33.199Z,2.40
2018-09-30T15:51:00.693Z,2.67
2018-09-30T15:53:28.605Z,2.55
2018-09-30T15:55:56.131Z,1.98
2018-09-30T15:58:23.607Z,5.30
2018-09-30T16:00:51.150Z,3.40
2018-09-30T16:03:18.842Z,2.65
2018-09-30T16:05:46.428Z,3.00
2018-09-30T16:08:14.017Z,3.12
2018-09-30T16:10:41.822Z,2.97
2018-09-30T16:13:09.378Z,2.80
2018-09-30T16:15:37.554Z,2.08
2018-09-30T16:18:05.552Z,3.17
2018-09-30T16:20:34.250Z,3.53
2018-09-30T16:23:01.713Z,4.20
2018-09-30T16:25:29.134Z,3.92
2018-09-30T16:27:56.663Z,3.25
2018-09-30T16:30:24.380Z,3.35
2018-09-30T16:32:51.915Z,3.42
2018-09-30T16:35:20.522Z,2.60
2018-09-30T16:37:48.068Z,2.85
2018-09-30T16:40:15.471Z,3.00
2018-09-30T16:42:43.017Z,2.70
2018-09-30T16:45:10.499Z,2.08
2018-09-30T16:47:37.943Z,2.87
2018-09-30T16:50:05.470Z,2.75
2018-09-30T16:52:32.914Z,3.65
2018-09-30T16:55:00.380Z,3.03
2018-09-30T16:57:27.872Z,2.97
2018-09-30T16:59:55.428Z,3.20
2018-09-30T17:02:23.044Z,2.92
2018-09-30T17:04:50.500Z,2.85
2018-09-30T17:07:17.914Z,2.92
2018-09-30T17:09:45.345Z,5.47
2018-09-30T17:12:12.755Z,4.07
2018-09-30T17:14:40.164Z,6.20
2018-09-30T17:17:07.616Z,8.90
2018-09-30T17:19:35.728Z,3.58
2018-09-30T17:22:03.218Z,4.10
2018-09-30T17:24:30.789Z,4.10
2018-09-30T17:26:58.259Z,3.60
2018-09-30T17:29:25.656Z,3.37
2018-09-30T17:31:53.181Z,3.60
2018-09-30T17:34:20.624Z,3.45
2018-09-30T17:36:48.089Z,3.95
2018-09-30T17:39:15.585Z,3.95
2018-09-30T17:41:43.005Z,3.47
2018-09-30T17:44:10.432Z,2.95
2018-09-30T17:46:37.903Z,3.15
2018-09-30T17:49:05.366Z,3.78
2018-09-30T17:51:32.905Z,3.45
2018-09-30T17:54:00.849Z,3.15
2018-09-30T17:56:28.281Z,3.62
2018-09-30T17:58:55.711Z,3.70
2018-09-30T18:01:23.556Z,3.78
2018-09-30T18:03:50.982Z,5.05
2018-09-30T18:06:18.414Z,3.80
2018-09-30T18:08:45.833Z,3.00
2018-09-30T18:11:13.976Z,4.45
2018-09-30T18:13:41.449Z,5.25
2018-09-30T18:16:09.004Z,2.90
2018-09-30T18:18:36.484Z,3.10
2018-09-30T18:21:03.929Z,3.12
2018-09-30T18:23:33.460Z,4.05
2018-09-30T18:26:01.069Z,3.60
2018-09-30T18:28:28.618Z,3.55
2018-09-30T18:30:56.162Z,3.50
2018-09-30T18:33:23.649Z,2.90
2018-09-30T18:35:51.108Z,3.90
2018-09-30T18:38:18.564Z,2.90
2018-09-30T18:40:46.033Z,3.30
2018-09-30T18:43:13.712Z,2.92
2018-09-30T18:45:41.170Z,2.90
2018-09-30T18:48:08.657Z,3.70
2018-09-30T18:50:36.052Z,3.58
2018-09-30T18:53:03.457Z,3.25
2018-09-30T18:55:30.965Z,2.47
2018-09-30T18:57:58.424Z,2.80
2018-09-30T19:00:25.890Z,3.78
2018-09-30T19:02:53.319Z,3.62
2018-09-30T19:05:20.798Z,2.75
2018-09-30T19:07:48.215Z,5.10
2018-09-30T19:10:15.662Z,4.03
2018-09-30T19:12:43.158Z,5.43
2018-09-30T19:15:10.618Z,4.10
2018-09-30T19:17:38.196Z,3.75
2018-09-30T19:20:05.683Z,3.65
2018-09-30T19:22:33.151Z,3.25
2018-09-30T19:25:01.220Z,3.67
2018-09-30T19:27:28.732Z,3.85
2018-09-30T19:29:56.403Z,4.65
2018-09-30T19:32:25.614Z,3.70
2018-09-30T19:34:56.924Z,4.18
2018-09-30T19:37:24.562Z,4.30
2018-09-30T19:39:52.147Z,2.95
2018-09-30T19:42:20.882Z,3.75
2018-09-30T19:44:48.605Z,5.12
2018-09-30T19:47:17.225Z,4.87
2018-09-30T19:49:45.078Z,4.00
2018-09-30T19:52:12.851Z,3.83
2018-09-30T19:54:40.299Z,4.07
2018-09-30T19:57:07.815Z,5.55
2018-09-30T19:59:35.358Z,5.10
2018-09-30T20:02:02.975Z,4.20
2018-09-30T20:04:30.426Z,5.70
2018-09-30T20:06:57.919Z,4.32
2018-09-30T20:09:25.402Z,6.70
2018-09-30T20:11:53.031Z,4.15
2018-09-30T20:14:20.531Z,4.35
2018-09-30T20:16:47.993Z,5.03
2018-09-30T20:19:15.481Z,4.40
2018-09-30T20:21:42.909Z,4.45
2018-09-30T20:24:10.409Z,7.45
2018-09-30T20:26:37.890Z,4.57
2018-09-30T20:29:05.337Z,5.12
2018-09-30T20:31:32.799Z,4.85
2018-09-30T20:34:00.437Z,4.95
2018-09-30T20:36:27.917Z,19.62
2018-09-30T20:38:55.474Z,7.90
2018-09-30T20:41:22.957Z,6.53
2018-09-30T20:43:50.424Z,6.53
2018-09-30T20:46:17.853Z,6.55
2018-09-30T20:48:45.280Z,4.82
2018-09-30T20:51:12.668Z,5.28
2018-09-30T20:53:40.106Z,5.53
2018-09-30T20:56:07.535Z,4.53
2018-09-30T20:58:34.979Z,5.57
2018-09-30T21:01:02.460Z,9.15
2018-09-30T21:03:29.937Z,5.60
2018-09-30T21:05:57.363Z,6.95
2018-09-30T21:08:25.615Z,6.07
2018-09-30T21:10:53.046Z,7.68
2018-09-30T21:13:20.495Z,6.45
2018-09-30T21:15:48.061Z,6.85
2018-09-30T21:18:15.563Z,6.75
2018-09-30T21:20:43.027Z,9.48
2018-09-30T21:23:10.445Z,8.05
2018-09-30T21:25:37.929Z,8.30
2018-09-30T21:28:05.408Z,7.35
2018-09-30T21:30:32.859Z,6.32
2018-09-30T21:33:00.251Z,6.22
2018-09-30T21:35:27.683Z,5.05
2018-09-30T21:37:55.119Z,6.60
2018-09-30T21:40:22.521Z,5.62
2018-09-30T21:42:49.983Z,5.30
2018-09-30T21:45:17.469Z,7.03
2018-09-30T21:47:44.917Z,6.43
2018-09-30T21:50:12.364Z,5.80
2018-09-30T21:52:40.145Z,6.03
2018-09-30T21:55:07.661Z,6.10
2018-09-30T21:57:34.998Z,6.90
2018-09-30T22:00:02.503Z,7.97
2018-09-30T22:02:29.942Z,6.30
2018-09-30T22:04:57.399Z,7.15
2018-09-30T22:07:24.884Z,5.65
2018-09-30T22:09:52.296Z,5.75
2018-09-30T22:12:20.345Z,6.07
2018-09-30T22:14:47.789Z,7.37
2018-09-30T22:17:15.226Z,5.25
2018-09-30T22:19:42.626Z,5.40
2018-09-30T22:22:10.095Z,4.82
2018-09-30T22:24:37.504Z,6.10
2018-09-30T22:27:05.112Z,4.78
2018-09-30T22:29:32.499Z,4.65
2018-09-30T22:31:59.957Z,7.35
2018-09-30T22:34:27.396Z,4.65
2018-09-30T22:36:54.842Z,4.53
2018-09-30T22:39:22.333Z,4.97
2018-09-30T22:41:49.814Z,5.50
2018-09-30T22:44:17.320Z,5.70
2018-09-30T22:46:44.856Z,5.50
2018-09-30T22:49:12.242Z,4.80
2018-09-30T22:51:39.759Z,5.32
2018-09-30T22:54:07.218Z,6.45
2018-09-30T22:56:34.967Z,4.62
2018-09-30T22:59:02.424Z,5.20
2018-09-30T23:01:29.825Z,7.90
2018-09-30T23:03:57.277Z,4.87
2018-09-30T23:06:24.909Z,6.25
2018-09-30T23:08:52.401Z,6.22
2018-09-30T23:11:19.843Z,5.20
2018-09-30T23:13:47.377Z,3.67
2018-09-30T23:16:14.818Z,5.15
2018-09-30T23:18:42.277Z,4.87
2018-09-30T23:21:09.695Z,6.28
2018-09-30T23:23:37.102Z,5.62
2018-09-30T23:26:04.552Z,6.05
2018-09-30T23:28:32.012Z,4.35
2018-09-30T23:30:59.463Z,5.12
2018-09-30T23:33:26.919Z,4.43
2018-09-30T23:35:54.377Z,5.62
2018-09-30T23:38:21.809Z,5.80
2018-09-30T23:40:49.235Z,4.60
2018-09-30T23:43:16.638Z,4.20
2018-09-30T23:45:44.067Z,5.30
2018-09-30T23:48:11.538Z,7.03
2018-09-30T23:50:39.012Z,6.72
2018-09-30T23:53:06.506Z,4.93
2018-09-30T23:55:33.951Z,5.05
2018-09-30T23:58:01.466Z,7.30
